This is the latest recevied weather packets stored in our database for station/object WP3OF-2. If no packets are shown the sender has not sent any weather packets the latest 10 day(s).
| Time | Temp. | Humidity | Pressure | Rain* | Wind** | Luminosity | Snow |
|---|---|---|---|---|---|---|---|
| 1778007622 | 23.89° C | 87% | 1026.3 hPa | 0 mm | - | 700 W/m² | - |
| 1778007319 | 24.44° C | 86% | 1026.7 hPa | 0 mm | - | 735 W/m² | - |
| 1778007016 | 23.89° C | 87% | 1026.7 hPa | 0 mm | - | 699 W/m² | - |
| 1778006713 | 23.89° C | 87% | 1026.7 hPa | 0 mm | - | 718 W/m² | - |
| 1778006409 | 23.89° C | 86% | 1026.7 hPa | 0 mm | - | 724 W/m² | - |
| 1778006106 | 23.89° C | 86% | 1026.7 hPa | 0 mm | - | 736 W/m² | - |
| 1778005803 | 23.33° C | 87% | 1026.7 hPa | 0 mm | - | 736 W/m² | - |
| 1778005500 | 23.89° C | 86% | 1026.7 hPa | 0 mm | - | 794 W/m² | - |
| 1778005196 | 23.89° C | 87% | 1026.7 hPa | 0 mm | - | 413 W/m² | - |
| 1778004893 | 23.89° C | 87% | 1026.7 hPa | 0 mm | - | 766 W/m² | - |
| 1778004590 | 23.89° C | 88% | 1026.7 hPa | 0 mm | - | 828 W/m² | - |
| 1778004286 | 24.44° C | 86% | 1026.7 hPa | 0 mm | - | 780 W/m² | - |
| 1778003984 | 24.44° C | 86% | 1026.7 hPa | 0 mm | - | 820 W/m² | - |
| 1778003679 | 23.89° C | 86% | 1026.7 hPa | 0 mm | - | 790 W/m² | - |
| 1778003376 | 23.89° C | 86% | 1027.1 hPa | 0 mm | - | 787 W/m² | - |
| 1778003074 | 23.89° C | 86% | 1027.1 hPa | 0 mm | - | 793 W/m² | - |
| 1778002769 | 23.89° C | 88% | 1027.4 hPa | 0 mm | - | 876 W/m² | - |
| 1778002466 | 23.89° C | 87% | 1027.4 hPa | 0 mm | - | 894 W/m² | - |
| 1778002163 | 24.44° C | 86% | 1027.9 hPa | 0 mm | - | 871 W/m² | - |
| 1778001861 | 23.33° C | 86% | 1027.4 hPa | 0 mm | - | 812 W/m² | - |
| 1778001560 | 23.33° C | 86% | 1027.9 hPa | 0 mm | - | 819 W/m² | - |
| 1778001258 | 22.78° C | 89% | 1027.4 hPa | 0 mm | - | 836 W/m² | - |
| 1778000954 | 23.33° C | 88% | 1027.9 hPa | 0 mm | - | 167 W/m² | - |
| 1778000651 | 24.44° C | 86% | 1027.9 hPa | 0 mm | - | 458 W/m² | - |
| 1778000346 | 23.89° C | 88% | 1027.9 hPa | 0 mm | - | 800 W/m² | - |
* Rain latest hour (hover to see other rain measurements)
** Current wind speed in m/s (hover to see current wind gust speed)